Time;durP1;ratioP1;P1;durP2;ratioP2;P2;SDS_P1;SDS_P2;PMS_P1;PMS_P2;Temp;Humidity;BMP_temperature;BMP_pressure;BME280_temperature;BME280_humidity;BME280_pressure;Samples;Min_cycle;Max_cycle;Signal;HPM_P1;HPM_P2
2022/03/06 00:00:48;;;;;;;11.65;6.05;;;;;;;0.77;99.63;94335.25;5050497;28;20227;-81
2022/03/06 00:03:16;;;;;;;10.93;5.88;;;;;;;0.76;99.63;94344.34;5050742;28;20227;-79
2022/03/06 00:05:43;;;;;;;14.00;6.43;;;;;;;0.75;99.62;94342.72;5050699;28;20227;-79
2022/03/06 00:08:09;;;;;;;5.85;4.10;;;;;;;0.79;99.69;94338.47;5050439;28;20330;-80
2022/03/06 00:10:38;;;;;;;6.78;4.75;;;;;;;0.84;99.67;94346.41;5050348;28;20211;-79
2022/03/06 00:13:05;;;;;;;9.55;5.28;;;;;;;0.83;99.47;94344.81;5050641;28;20224;-80
2022/03/06 00:15:32;;;;;;;13.00;6.53;;;;;;;0.74;99.47;94319.81;5048521;28;20286;-79
2022/03/06 00:17:59;;;;;;;12.35;7.55;;;;;;;0.75;99.13;94332.88;5050368;28;20211;-80
2022/03/06 00:20:26;;;;;;;8.82;4.30;;;;;;;0.78;99.15;94331.53;5050458;28;20204;-80
2022/03/06 00:22:53;;;;;;;8.75;5.50;;;;;;;0.79;99.19;94338.47;5050940;28;20200;-79
2022/03/06 00:25:20;;;;;;;14.02;5.35;;;;;;;0.78;99.14;94345.66;5049999;28;20196;-78
2022/03/06 00:27:48;;;;;;;8.57;4.78;;;;;;;0.71;99.26;94343.28;5052669;28;20561;-81
2022/03/06 00:30:15;;;;;;;8.02;5.00;;;;;;;0.68;99.30;94330.50;5053819;28;20566;-79
2022/03/06 00:32:42;;;;;;;7.88;5.43;;;;;;;0.71;99.24;94332.59;5053975;28;20212;-80
2022/03/06 00:35:10;;;;;;;6.85;4.50;;;;;;;0.69;99.38;94329.41;5053683;28;20594;-79
2022/03/06 00:37:37;;;;;;;8.85;4.15;;;;;;;0.76;99.24;94334.47;5053901;28;20227;-79
2022/03/06 00:40:06;;;;;;;9.50;5.10;;;;;;;0.71;99.44;94337.94;5053841;28;20199;-79
2022/03/06 00:42:33;;;;;;;7.05;4.10;;;;;;;0.75;99.34;94332.06;5040287;28;20231;-79
2022/03/06 00:45:02;;;;;;;4.93;2.85;;;;;;;0.76;99.46;94323.00;5053579;28;20226;-79
2022/03/06 00:47:28;;;;;;;6.00;4.53;;;;;;;0.79;99.29;94322.47;5053228;28;20211;-80
2022/03/06 00:49:55;;;;;;;6.22;4.13;;;;;;;0.74;99.33;94314.47;5053811;28;20210;-79
2022/03/06 00:52:22;;;;;;;6.30;4.25;;;;;;;0.75;99.12;94321.41;5053757;28;20208;-77
2022/03/06 00:54:49;;;;;;;5.35;3.90;;;;;;;0.75;99.22;94310.75;5053590;28;20207;-80
2022/03/06 00:57:16;;;;;;;3.03;2.15;;;;;;;0.77;98.93;94308.59;5053821;28;20232;-80
2022/03/06 00:59:43;;;;;;;5.95;4.25;;;;;;;0.78;98.78;94312.88;5053050;28;20220;-79
2022/03/06 01:02:12;;;;;;;7.32;4.18;;;;;;;0.73;99.02;94307.56;5053501;28;20228;-77
2022/03/06 01:04:39;;;;;;;9.15;4.78;;;;;;;0.75;98.91;94306.22;5053385;28;20544;-78
2022/03/06 01:07:06;;;;;;;6.70;3.97;;;;;;;0.73;98.90;94302.22;5053221;28;20563;-78
2022/03/06 01:09:33;;;;;;;5.47;3.05;;;;;;;0.76;99.08;94296.34;5053360;28;20601;-77
2022/03/06 01:12:00;;;;;;;4.72;3.15;;;;;;;0.70;99.19;94280.38;5053155;28;20227;-78
2022/03/06 01:14:28;;;;;;;15.13;5.22;;;;;;;0.78;99.12;94304.88;5053267;28;20200;-78
2022/03/06 01:16:55;;;;;;;7.07;4.38;;;;;;;0.77;98.88;94301.41;5053545;28;20232;-78
2022/03/06 01:19:23;;;;;;;6.15;3.72;;;;;;;0.77;99.13;94300.63;5053119;28;20210;-79
2022/03/06 01:21:50;;;;;;;5.60;3.58;;;;;;;0.70;99.32;94293.69;5053328;28;20211;-80
2022/03/06 01:24:17;;;;;;;9.73;4.90;;;;;;;0.69;99.37;94292.09;5053158;28;20203;-77
2022/03/06 01:26:44;;;;;;;6.53;4.05;;;;;;;0.66;99.35;94292.69;5052829;28;20674;-80
2022/03/06 01:29:11;;;;;;;6.93;4.80;;;;;;;0.73;99.58;94302.22;5053145;28;20211;-77
2022/03/06 01:31:38;;;;;;;8.18;4.90;;;;;;;0.73;99.31;94297.69;5053180;28;20214;-78
2022/03/06 01:34:05;;;;;;;4.75;3.58;;;;;;;0.69;99.40;94297.44;5053024;28;20232;-81
2022/03/06 01:36:34;;;;;;;7.30;3.75;;;;;;;0.67;99.58;94296.94;5052492;28;20231;-77
2022/03/06 01:39:01;;;;;;;14.75;6.65;;;;;;;0.66;99.45;94300.66;5051613;28;20586;-79
2022/03/06 01:41:28;;;;;;;11.68;5.75;;;;;;;0.67;99.47;94299.59;5052589;28;20640;-78
2022/03/06 01:43:55;;;;;;;7.30;4.47;;;;;;;0.70;99.34;94285.72;5052308;28;20203;-77
2022/03/06 01:46:22;;;;;;;12.55;6.22;;;;;;;0.69;99.34;94275.31;5053034;28;20293;-80
2022/03/06 01:48:49;;;;;;;11.70;6.40;;;;;;;0.75;99.42;94276.91;5052603;28;20215;-80
2022/03/06 01:51:16;;;;;;;10.43;4.85;;;;;;;0.74;99.35;94280.63;5052321;28;20200;-78
2022/03/06 01:53:44;;;;;;;13.32;7.22;;;;;;;0.79;99.32;94271.81;5052639;28;20585;-80
2022/03/06 01:56:13;;;;;;;13.30;7.38;;;;;;;0.79;98.71;94274.50;5052277;28;20234;-81
2022/03/06 01:58:42;;;;;;;9.73;5.57;;;;;;;0.80;98.58;94276.09;5052593;28;20258;-79
2022/03/06 02:01:10;;;;;;;14.95;5.32;;;;;;;0.77;98.63;94256.09;5052419;28;20223;-80
2022/03/06 02:03:36;;;;;;;9.57;5.38;;;;;;;0.84;98.41;94261.09;5052979;28;20199;-79
2022/03/06 02:06:05;;;;;;;11.10;5.88;;;;;;;0.85;98.22;94270.69;5052659;28;20640;-79
2022/03/06 02:08:32;;;;;;;9.73;5.82;;;;;;;0.86;98.19;94266.97;5051651;28;20706;-80
2022/03/06 02:11:02;;;;;;;15.45;7.32;;;;;;;0.88;97.88;94270.94;5052378;28;20195;-78
2022/03/06 02:13:29;;;;;;;8.80;3.95;;;;;;;0.93;97.85;94270.13;5051928;28;20591;-79
2022/03/06 02:15:57;;;;;;;8.35;3.83;;;;;;;0.93;97.36;94270.94;5052058;28;20204;-79
2022/03/06 02:18:24;;;;;;;16.00;6.97;;;;;;;0.94;97.42;94259.19;5052029;28;20261;-79
2022/03/06 02:20:51;;;;;;;10.20;5.68;;;;;;;0.95;97.31;94260.00;5051627;28;20208;-83
2022/03/06 02:23:19;;;;;;;10.30;5.82;;;;;;;0.96;96.97;94266.91;5051935;28;20214;-79
2022/03/06 02:25:46;;;;;;;10.65;5.38;;;;;;;0.99;96.78;94263.69;5051710;28;20671;-78
2022/03/06 02:28:13;;;;;;;12.45;7.10;;;;;;;0.98;96.82;94262.09;5051990;28;20207;-81
2022/03/06 02:30:42;;;;;;;9.40;6.18;;;;;;;0.99;96.60;94269.03;5051542;28;20211;-78
2022/03/06 02:33:11;;;;;;;6.45;3.90;;;;;;;1.06;96.21;94253.53;5051691;28;20196;-78
2022/03/06 02:35:38;;;;;;;3.45;2.90;;;;;;;1.09;96.20;94255.63;5051675;28;20204;-80
2022/03/06 02:38:06;;;;;;;7.05;3.55;;;;;;;1.06;95.86;94259.66;5052114;28;20239;-80
2022/03/06 02:40:38;;;;;;;10.05;4.47;;;;;;;1.08;96.06;94272.72;5051016;28;20196;-79
2022/03/06 02:43:06;;;;;;;10.95;5.78;;;;;;;1.11;95.50;94266.81;5051543;28;20254;-80
2022/03/06 02:45:34;;;;;;;8.88;4.60;;;;;;;1.17;94.98;94264.91;5050956;28;20242;-80
2022/03/06 02:48:02;;;;;;;6.90;3.83;;;;;;;1.13;94.60;94267.31;5051581;28;20230;-80
2022/03/06 02:50:31;;;;;;;5.18;3.55;;;;;;;1.16;94.58;94264.09;5051238;28;20196;-80
2022/03/06 02:52:59;;;;;;;10.02;4.90;;;;;;;1.18;94.19;94256.63;5051091;28;20199;-80
2022/03/06 02:55:26;;;;;;;3.88;2.58;;;;;;;1.18;94.11;94266.50;5051090;28;20218;-80
2022/03/06 02:57:55;;;;;;;7.80;4.18;;;;;;;1.17;94.03;94273.72;5051313;28;20239;-81
2022/03/06 03:00:24;;;;;;;3.20;2.33;;;;;;;1.18;94.07;94264.63;5038250;28;20196;-82
2022/03/06 03:02:52;;;;;;;3.25;2.75;;;;;;;1.18;93.60;94277.97;5050924;28;20762;-77
2022/03/06 03:05:20;;;;;;;4.95;2.42;;;;;;;1.13;94.14;94277.19;5051331;28;20203;-81
2022/03/06 03:07:49;;;;;;;3.83;2.33;;;;;;;1.13;93.88;94270.00;5051270;28;20226;-82
2022/03/06 03:10:18;;;;;;;4.60;2.88;;;;;;;1.12;94.21;94279.06;5051219;28;20211;-79
2022/03/06 03:12:47;;;;;;;4.22;2.92;;;;;;;1.06;94.34;94278.31;5050640;28;20315;-78
2022/03/06 03:15:16;;;;;;;3.05;2.50;;;;;;;1.03;94.92;94280.72;5050990;28;20210;-81
2022/03/06 03:17:44;;;;;;;3.78;2.53;;;;;;;1.08;95.05;94283.38;5050995;28;20239;-81
2022/03/06 03:20:12;;;;;;;3.30;2.45;;;;;;;1.02;95.06;94282.59;5051330;28;20205;-83
2022/03/06 03:22:39;;;;;;;4.10;2.90;;;;;;;0.95;95.31;94284.00;5050478;28;20200;-81
2022/03/06 03:25:07;;;;;;;6.80;2.53;;;;;;;0.98;95.33;94288.75;5041690;28;20211;-82
2022/03/06 03:27:35;;;;;;;4.13;2.53;;;;;;;0.93;95.60;94286.94;5044082;28;20291;-80
2022/03/06 03:30:03;;;;;;;3.53;1.30;;;;;;;0.95;95.81;94286.66;5041330;28;20204;-82
2022/03/06 03:32:31;;;;;;;6.38;3.50;;;;;;;0.90;95.72;94292.81;5050780;28;20212;-80
2022/03/06 03:34:58;;;;;;;4.05;2.33;;;;;;;0.91;96.02;94282.94;5050854;28;20269;-81
2022/03/06 03:37:25;;;;;;;5.03;3.75;;;;;;;0.85;96.08;94286.69;5050142;28;20232;-80
2022/03/06 03:39:52;;;;;;;3.92;2.63;;;;;;;0.89;96.04;94279.75;5050951;28;20200;-80
2022/03/06 03:42:19;;;;;;;4.50;2.30;;;;;;;0.89;96.19;94295.75;5050388;28;20231;-80
2022/03/06 03:44:45;;;;;;;2.70;2.30;;;;;;;0.82;96.59;94281.94;5050977;28;20223;-81
2022/03/06 03:47:12;;;;;;;7.47;4.28;;;;;;;0.84;96.74;94293.91;5050353;28;20579;-81
2022/03/06 03:49:40;;;;;;;5.70;3.80;;;;;;;0.77;97.01;94285.41;5050436;28;20204;-82
2022/03/06 03:52:07;;;;;;;4.00;2.97;;;;;;;0.81;96.98;94299.00;5051049;28;20222;-82
2022/03/06 03:54:35;;;;;;;6.13;3.60;;;;;;;0.73;97.44;94294.22;5050439;28;20215;-82
2022/03/06 03:57:02;;;;;;;3.70;2.22;;;;;;;0.74;97.90;94298.50;5050598;28;20231;-84
2022/03/06 03:59:32;;;;;;;5.82;4.13;;;;;;;0.74;97.78;94293.97;5051002;28;20219;-80
2022/03/06 04:01:59;;;;;;;2.33;1.60;;;;;;;0.71;98.15;94300.63;5051905;28;20263;-78
2022/03/06 04:04:26;;;;;;;7.45;3.38;;;;;;;0.74;98.14;94295.81;5054947;28;20200;-78
2022/03/06 04:06:54;;;;;;;3.33;2.67;;;;;;;0.73;98.29;94304.88;5041693;28;20590;-78
2022/03/06 04:09:21;;;;;;;5.32;2.88;;;;;;;0.65;98.26;94288.41;5054469;28;20208;-80
2022/03/06 04:11:48;;;;;;;5.15;2.47;;;;;;;0.67;98.17;94294.28;5043190;28;20219;-79
2022/03/06 04:14:15;;;;;;;3.08;2.25;;;;;;;0.61;98.50;94292.69;5054456;28;20200;-81
2022/03/06 04:16:42;;;;;;;4.13;2.35;;;;;;;0.64;98.76;94292.16;5054648;28;20211;-81
2022/03/06 04:19:09;;;;;;;6.85;3.35;;;;;;;0.61;98.47;94281.22;5055008;28;20221;-80
2022/03/06 04:21:37;;;;;;;2.92;2.05;;;;;;;0.64;98.83;94289.47;5055214;28;20204;-80
2022/03/06 04:24:05;;;;;;;3.63;2.95;;;;;;;0.66;98.53;94306.00;5055518;28;20208;-78
2022/03/06 04:26:32;;;;;;;3.88;2.30;;;;;;;0.61;98.62;94279.38;5054566;28;20635;-79
2022/03/06 04:29:00;;;;;;;4.40;2.58;;;;;;;0.60;98.73;94291.09;5053011;28;20312;-78
2022/03/06 04:31:27;;;;;;;3.65;2.55;;;;;;;0.59;98.95;94286.84;5054358;28;20210;-80
2022/03/06 04:33:54;;;;;;;3.63;1.63;;;;;;;0.60;98.94;94291.09;5054569;28;20253;-79
2022/03/06 04:36:21;;;;;;;4.22;2.80;;;;;;;0.58;98.94;94293.22;5054436;28;20203;-79
2022/03/06 04:38:48;;;;;;;3.40;2.65;;;;;;;0.59;99.10;94294.81;5054075;28;20228;-80
2022/03/06 04:41:17;;;;;;;4.18;2.92;;;;;;;0.62;99.26;94294.28;5053783;28;20231;-79
2022/03/06 04:43:44;;;;;;;3.63;2.05;;;;;;;0.55;99.15;94290.31;5053550;28;20251;-79
2022/03/06 04:46:11;;;;;;;3.92;2.55;;;;;;;0.54;99.08;94300.19;5053857;28;20208;-82
2022/03/06 04:48:38;;;;;;;6.13;2.60;;;;;;;0.56;98.92;94291.91;5053144;28;20204;-83
2022/03/06 04:51:05;;;;;;;7.18;2.65;;;;;;;0.54;98.84;94294.88;5053991;28;20230;-78
2022/03/06 04:53:32;;;;;;;4.00;2.05;;;;;;;0.54;98.90;94292.19;5053915;28;20204;-77
2022/03/06 04:55:59;;;;;;;3.78;2.55;;;;;;;0.56;98.70;94295.38;5052969;28;20199;-78
2022/03/06 04:58:27;;;;;;;4.82;2.78;;;;;;;0.54;98.99;94292.19;5053466;28;20238;-78
2022/03/06 05:00:54;;;;;;;7.55;4.05;;;;;;;0.56;98.60;94298.03;5053901;28;20266;-78
2022/03/06 05:03:21;;;;;;;5.32;2.58;;;;;;;0.59;98.60;94297.50;5053914;28;20195;-78
2022/03/06 05:05:48;;;;;;;5.97;2.65;;;;;;;0.59;97.93;94299.34;5053248;28;20223;-78
2022/03/06 05:08:15;;;;;;;4.13;2.80;;;;;;;0.58;98.27;94295.09;5053648;28;20234;-78
2022/03/06 05:10:43;;;;;;;4.15;2.65;;;;;;;0.57;98.12;94302.28;5053466;28;20231;-78
2022/03/06 05:13:10;;;;;;;2.65;1.77;;;;;;;0.59;98.15;94297.50;5046233;28;20211;-78
2022/03/06 05:15:38;;;;;;;3.15;1.95;;;;;;;0.63;98.08;94297.75;5052050;28;20308;-79
2022/03/06 05:18:07;;;;;;;4.47;2.33;;;;;;;0.61;97.64;94290.03;5053283;28;20606;-78
2022/03/06 05:20:33;;;;;;;1.98;1.75;;;;;;;0.64;96.25;94288.69;5053969;28;20276;-81
2022/03/06 05:23:00;;;;;;;1.67;1.42;;;;;;;0.62;95.79;94299.63;5059729;28;20562;-79
2022/03/06 05:25:27;;;;;;;2.22;1.35;;;;;;;0.67;95.00;94299.59;5059958;28;20204;-79
2022/03/06 05:27:55;;;;;;;2.40;1.38;;;;;;;0.62;94.73;94291.63;5052610;28;20203;-79
2022/03/06 05:30:21;;;;;;;2.17;1.27;;;;;;;0.69;94.46;94294.78;5052937;28;20204;-79
2022/03/06 05:32:50;;;;;;;2.90;1.40;;;;;;;0.73;93.99;94296.91;5053258;28;20255;-83
2022/03/06 05:35:17;;;;;;;2.97;1.85;;;;;;;0.73;93.25;94307.56;5053012;28;20609;-79
2022/03/06 05:37:44;;;;;;;2.55;1.10;;;;;;;0.80;93.39;94310.72;5053152;28;20231;-80
2022/03/06 05:40:11;;;;;;;1.42;1.05;;;;;;;0.85;92.97;94313.34;5053007;28;20211;-79
2022/03/06 05:42:38;;;;;;;1.55;1.20;;;;;;;0.84;92.79;94311.75;5051994;28;20707;-76
2022/03/06 05:45:06;;;;;;;1.63;1.00;;;;;;;0.81;92.14;94299.00;5052372;28;20199;-77
2022/03/06 05:47:33;;;;;;;2.28;1.00;;;;;;;0.83;92.16;94318.16;5052352;28;20219;-78
2022/03/06 05:50:02;;;;;;;2.20;1.52;;;;;;;0.91;91.58;94309.59;5052642;28;20230;-79
2022/03/06 05:52:29;;;;;;;1.48;1.00;;;;;;;0.88;91.33;94308.28;5052542;28;20199;-78
2022/03/06 05:54:55;;;;;;;1.52;1.15;;;;;;;0.89;90.77;94304.53;5052123;28;20819;-78
2022/03/06 05:57:24;;;;;;;1.75;1.00;;;;;;;0.87;90.89;94304.03;5052170;28;20226;-78
2022/03/06 05:59:51;;;;;;;0.73;0.73;;;;;;;0.89;90.16;94303.75;5052288;28;20269;-78
2022/03/06 06:02:19;;;;;;;1.27;1.05;;;;;;;0.95;89.82;94306.13;5052521;28;20211;-79
2022/03/06 06:04:47;;;;;;;1.45;1.20;;;;;;;0.95;89.02;94308.00;5051346;28;20257;-78
2022/03/06 06:07:16;;;;;;;3.88;1.48;;;;;;;0.94;89.78;94303.72;5051602;28;20266;-79
2022/03/06 06:09:43;;;;;;;1.27;0.93;;;;;;;0.95;88.98;94321.31;5051986;28;20215;-80
2022/03/06 06:12:10;;;;;;;2.45;1.52;;;;;;;0.95;89.26;94316.78;5051758;28;20223;-79
2022/03/06 06:14:37;;;;;;;1.80;1.17;;;;;;;0.92;88.74;94321.88;5052137;28;20294;-79
2022/03/06 06:17:05;;;;;;;1.52;1.00;;;;;;;0.87;88.79;94321.88;5051432;28;20569;-81
2022/03/06 06:19:32;;;;;;;1.35;1.02;;;;;;;0.92;88.14;94330.66;5045053;28;20238;-77
2022/03/06 06:21:58;;;;;;;1.50;1.27;;;;;;;0.97;89.20;94327.94;5051617;28;20214;-79
2022/03/06 06:24:27;;;;;;;1.17;1.05;;;;;;;0.96;88.70;94329.03;5051577;28;20199;-78
2022/03/06 06:26:55;;;;;;;1.13;0.90;;;;;;;0.92;88.82;94332.53;5052032;28;20199;-81
2022/03/06 06:29:22;;;;;;;0.65;0.60;;;;;;;0.92;89.10;94337.88;5051701;28;20218;-78
2022/03/06 06:31:49;;;;;;;1.33;0.98;;;;;;;0.91;89.32;94330.94;5051790;28;20548;-77
2022/03/06 06:34:16;;;;;;;1.30;1.10;;;;;;;0.88;89.37;94334.94;5051560;28;20203;-78
2022/03/06 06:36:43;;;;;;;1.67;1.10;;;;;;;0.92;89.96;94340.53;5051956;28;20208;-79
2022/03/06 06:39:11;;;;;;;2.83;1.48;;;;;;;0.83;89.30;94334.16;5051882;28;20238;-78
2022/03/06 06:41:39;;;;;;;2.08;1.05;;;;;;;0.80;90.44;94334.72;5051451;28;20224;-82
2022/03/06 06:44:06;;;;;;;1.10;0.95;;;;;;;0.79;90.54;94336.59;5051833;28;20231;-78
2022/03/06 06:46:33;;;;;;;1.52;1.33;;;;;;;0.70;90.67;94333.69;5051465;28;20210;-79
2022/03/06 06:49:03;;;;;;;3.17;1.70;;;;;;;0.85;89.86;94338.16;5051205;28;20292;-79
2022/03/06 06:51:30;;;;;;;2.72;1.05;;;;;;;0.88;89.93;94347.47;5051110;28;20253;-78
2022/03/06 06:53:57;;;;;;;5.13;2.40;;;;;;;0.82;90.37;94338.69;5051348;28;20659;-78
2022/03/06 06:56:24;;;;;;;2.47;1.40;;;;;;;0.80;90.75;94345.38;5051590;28;20220;-78
2022/03/06 06:58:52;;;;;;;1.27;0.80;;;;;;;0.80;91.30;94340.84;5037911;28;20977;-77
2022/03/06 07:01:19;;;;;;;1.52;1.10;;;;;;;0.80;91.01;94351.53;5050666;28;20253;-78
2022/03/06 07:03:46;;;;;;;2.83;1.70;;;;;;;0.80;90.94;94348.06;5051135;28;20210;-76
2022/03/06 07:06:13;;;;;;;1.33;0.80;;;;;;;0.75;91.27;94348.88;5051071;28;20792;-76
2022/03/06 07:08:40;;;;;;;3.90;1.67;;;;;;;0.71;92.08;94348.59;5051093;28;20572;-76
2022/03/06 07:11:07;;;;;;;3.58;2.42;;;;;;;0.71;92.72;94353.94;5050838;28;20223;-77
2022/03/06 07:13:34;;;;;;;2.78;2.17;;;;;;;0.67;92.92;94358.25;5051317;28;20204;-77
2022/03/06 07:16:03;;;;;;;3.88;2.03;;;;;;;0.69;91.77;94341.94;5050739;28;20211;-74
2022/03/06 07:18:30;;;;;;;3.40;1.67;;;;;;;0.76;91.99;94349.66;5050879;28;20258;-77
2022/03/06 07:20:56;;;;;;;1.65;1.08;;;;;;;0.84;92.01;94341.09;5050330;28;20204;-78
2022/03/06 07:23:23;;;;;;;1.65;1.25;;;;;;;0.85;91.30;94340.00;5052406;28;20214;-76
2022/03/06 07:25:50;;;;;;;1.13;1.02;;;;;;;0.89;91.42;94333.06;5050580;28;20265;-77
2022/03/06 07:28:17;;;;;;;1.02;0.93;;;;;;;0.87;92.06;94340.53;5050668;28;20523;-79
2022/03/06 07:30:44;;;;;;;4.25;2.22;;;;;;;0.88;91.32;94331.47;5050469;28;20206;-81
2022/03/06 07:33:12;;;;;;;2.85;1.52;;;;;;;1.06;91.74;94328.19;5050105;28;20211;-79
2022/03/06 07:35:39;;;;;;;2.88;1.27;;;;;;;1.00;91.10;94337.28;5050418;28;20206;-79
2022/03/06 07:38:06;;;;;;;1.88;1.60;;;;;;;1.05;90.93;94343.38;5054119;28;20227;-78
2022/03/06 07:40:34;;;;;;;3.58;2.10;;;;;;;0.95;90.93;94337.31;5050595;28;20204;-78
2022/03/06 07:43:01;;;;;;;3.90;1.75;;;;;;;0.85;90.60;94343.47;5045560;28;20260;-78
2022/03/06 07:45:28;;;;;;;2.20;1.00;;;;;;;0.87;91.21;94340.53;5054615;28;20200;-78
2022/03/06 07:47:55;;;;;;;1.48;1.33;;;;;;;0.88;91.28;94347.47;5053960;28;20204;-77
2022/03/06 07:50:24;;;;;;;2.10;1.08;;;;;;;0.88;91.29;94358.13;5054390;28;20290;-78
2022/03/06 07:52:51;;;;;;;1.17;0.85;;;;;;;0.94;91.26;94367.72;5054759;28;20226;-78
2022/03/06 07:55:19;;;;;;;3.17;1.58;;;;;;;0.99;91.30;94359.69;5054781;28;20290;-80
2022/03/06 07:57:46;;;;;;;6.78;1.85;;;;;;;1.03;91.45;94372.19;5054214;28;20214;-80
2022/03/06 08:00:15;;;;;;;1.92;1.58;;;;;;;0.96;90.36;94369.00;5054197;28;20265;-79
2022/03/06 08:02:42;;;;;;;1.58;1.27;;;;;;;1.05;90.28;94363.94;5053702;28;20214;-77
2022/03/06 08:05:10;;;;;;;2.22;1.60;;;;;;;0.99;89.71;94360.47;5040892;28;20227;-80
2022/03/06 08:07:38;;;;;;;1.48;0.98;;;;;;;1.05;91.08;94371.94;5057809;28;20203;-80
2022/03/06 08:10:06;;;;;;;3.28;1.35;;;;;;;1.01;90.81;94369.00;5054261;28;20227;-79
2022/03/06 08:12:33;;;;;;;1.70;1.42;;;;;;;0.97;91.37;94367.16;5053703;28;20294;-80
2022/03/06 08:15:00;;;;;;;3.80;1.80;;;;;;;1.03;90.82;94355.41;5053828;28;20207;-81
2022/03/06 08:17:27;;;;;;;0.63;0.60;;;;;;;0.98;90.24;94358.09;5054076;28;20215;-81
2022/03/06 08:19:54;;;;;;;5.20;2.40;;;;;;;1.04;90.77;94362.34;5054374;28;20238;-82
2022/03/06 08:22:22;;;;;;;3.42;1.95;;;;;;;0.96;90.80;94366.34;5054126;28;20297;-79
2022/03/06 08:24:51;;;;;;;2.35;1.60;;;;;;;0.93;91.58;94366.13;5065309;28;20211;-79
2022/03/06 08:27:18;;;;;;;1.17;1.00;;;;;;;0.94;90.85;94363.19;5053054;28;20196;-78
2022/03/06 08:29:46;;;;;;;1.35;0.90;;;;;;;0.94;91.27;94362.38;5052975;28;20200;-79
2022/03/06 08:32:13;;;;;;;3.08;1.60;;;;;;;0.98;90.74;94363.41;5052642;28;20192;-79
2022/03/06 08:34:39;;;;;;;1.20;1.02;;;;;;;0.94;90.98;94367.72;5053013;28;20199;-79
2022/03/06 08:37:06;;;;;;;5.82;1.92;;;;;;;1.03;90.71;94363.41;5052862;28;20192;-78
2022/03/06 08:39:34;;;;;;;2.45;1.00;;;;;;;1.00;90.29;94354.06;5057542;28;20231;-82
2022/03/06 08:42:06;;;;;;;8.85;4.18;;;;;;;1.10;90.64;94347.88;5062277;28;20235;-85
2022/03/06 08:44:32;;;;;;;2.60;1.77;;;;;;;1.28;90.28;94357.94;5057813;28;20235;-78
2022/03/06 08:47:00;;;;;;;4.35;1.65;;;;;;;1.57;89.12;94350.00;5051298;28;20203;-78
2022/03/06 08:49:26;;;;;;;3.90;2.25;;;;;;;1.49;88.94;94350.59;5051425;28;20192;-80
2022/03/06 08:51:53;;;;;;;2.78;2.28;;;;;;;1.50;90.11;94349.53;5052602;28;20200;-80
2022/03/06 08:54:21;;;;;;;2.63;1.70;;;;;;;1.42;90.10;94348.22;5051891;28;20223;-79
2022/03/06 08:56:48;;;;;;;2.47;1.67;;;;;;;1.48;90.97;94348.22;5051670;28;20787;-80
2022/03/06 08:59:16;;;;;;;4.30;1.58;;;;;;;1.51;91.28;94345.75;5052589;28;20233;-83
2022/03/06 09:01:43;;;;;;;2.80;1.83;;;;;;;1.75;91.00;94337.84;5052797;28;20203;-79
2022/03/06 09:04:10;;;;;;;2.50;1.92;;;;;;;1.85;90.20;94331.63;5052687;28;20192;-80
2022/03/06 09:06:38;;;;;;;3.38;1.98;;;;;;;2.23;89.42;94340.63;5052293;28;20279;-81
2022/03/06 09:09:05;;;;;;;1.25;1.13;;;;;;;2.62;87.09;94333.25;5051866;28;20215;-81
2022/03/06 09:11:31;;;;;;;2.97;1.70;;;;;;;2.64;86.26;94336.44;5050477;28;20566;-79
2022/03/06 09:13:59;;;;;;;3.50;2.15;;;;;;;2.32;87.39;94329.06;5035307;28;20208;-83
2022/03/06 09:16:28;;;;;;;0.98;0.93;;;;;;;2.20;87.43;94338.50;5051941;28;20208;-84
2022/03/06 09:18:54;;;;;;;1.38;1.20;;;;;;;2.25;87.02;94328.59;5051968;28;20231;-79
2022/03/06 09:21:21;;;;;;;2.75;1.95;;;;;;;2.17;86.65;94347.13;5050141;28;20479;-80
2022/03/06 09:23:48;;;;;;;2.55;1.80;;;;;;;2.22;86.10;94347.03;5053635;28;20204;-82
2022/03/06 09:26:15;;;;;;;3.03;2.13;;;;;;;1.92;86.66;94346.25;5051220;28;20204;-80
2022/03/06 09:28:42;;;;;;;2.95;2.22;;;;;;;1.91;86.83;94339.34;5053676;28;20212;-82
2022/03/06 09:31:09;;;;;;;1.98;1.42;;;;;;;1.76;87.31;94347.47;5057218;28;20199;-89
2022/03/06 09:33:37;;;;;;;4.07;2.50;;;;;;;1.81;87.44;94342.06;5053395;28;20204;-86
2022/03/06 09:36:05;;;;;;;5.30;2.85;;;;;;;1.77;87.92;94349.06;5041114;28;20633;-83
2022/03/06 09:38:32;;;;;;;2.03;1.70;;;;;;;1.71;86.48;94350.16;5054784;28;20298;-84
2022/03/06 09:41:04;;;;;;;3.63;2.45;;;;;;;1.88;87.25;94347.91;5052319;28;20207;-85
2022/03/06 09:43:32;;;;;;;5.55;2.22;;;;;;;1.89;86.12;94346.81;5051787;28;20778;-81
2022/03/06 09:46:06;;;;;;;2.70;2.00;;;;;;;1.92;86.69;94330.22;5050503;28;20211;-79
2022/03/06 09:48:33;;;;;;;4.20;2.13;;;;;;;1.83;85.94;94347.94;5049613;28;20532;-78
2022/03/06 09:51:02;;;;;;;2.13;1.70;;;;;;;1.81;85.83;94344.72;5049042;28;20203;-79
2022/03/06 09:53:29;;;;;;;3.42;2.13;;;;;;;1.77;84.89;94346.38;5051104;28;21016;-79
2022/03/06 09:55:56;;;;;;;1.30;1.20;;;;;;;1.84;84.91;94348.72;5050152;28;20368;-78
2022/03/06 09:58:23;;;;;;;1.73;1.42;;;;;;;1.66;84.93;94352.88;5049473;28;20200;-82
2022/03/06 10:00:50;;;;;;;2.60;1.20;;;;;;;1.64;84.47;94360.38;5045602;28;20208;-79
2022/03/06 10:03:19;;;;;;;2.50;1.75;;;;;;;1.54;84.71;94349.75;5051067;28;20211;-84
2022/03/06 10:05:46;;;;;;;1.77;1.48;;;;;;;1.62;85.46;94367.84;5050370;28;20231;-79
2022/03/06 10:08:21;;;;;;;2.28;1.77;;;;;;;1.53;86.22;94353.50;5047074;28;20219;-78
2022/03/06 10:10:50;;;;;;;6.05;2.60;;;;;;;1.43;87.17;94365.84;5048777;28;20206;-80
2022/03/06 10:13:25;;;;;;;3.30;1.90;;;;;;;1.27;86.35;94356.31;5049495;28;20249;-80
2022/03/06 10:16:05;;;;;;;2.75;1.88;;;;;;;1.32;86.27;94356.31;5052280;28;20280;-84
2022/03/06 10:18:33;;;;;;;4.90;2.65;;;;;;;1.36;86.32;94354.69;5049420;28;20254;-83
2022/03/06 10:21:03;;;;;;;5.30;2.83;;;;;;;1.30;86.73;94366.44;5048858;28;20693;-82
2022/03/06 10:23:31;;;;;;;4.55;2.65;;;;;;;1.34;86.20;94358.69;5053799;28;20195;-83
2022/03/06 10:26:02;;;;;;;3.75;2.30;;;;;;;1.35;85.54;94357.63;5052987;28;20207;-84
2022/03/06 10:28:29;;;;;;;4.10;2.80;;;;;;;1.24;84.78;94372.88;5051617;28;20282;-81
2022/03/06 10:31:04;;;;;;;2.25;1.63;;;;;;;1.41;86.01;94351.97;5050043;28;20203;-83
2022/03/06 10:33:31;;;;;;;3.42;1.90;;;;;;;1.32;84.88;94353.63;5050862;28;20187;-83
2022/03/06 10:36:02;;;;;;;4.20;1.95;;;;;;;1.27;85.13;94351.00;5048082;28;20203;-79
2022/03/06 10:38:32;;;;;;;5.18;2.67;;;;;;;1.30;84.90;94347.78;5052440;28;20223;-84
2022/03/06 10:41:00;;;;;;;6.45;3.47;;;;;;;1.35;85.04;94331.75;5053421;28;20224;-80
2022/03/06 10:43:29;;;;;;;5.18;2.47;;;;;;;1.34;84.72;94345.38;5050824;28;20200;-80
2022/03/06 10:46:07;;;;;;;3.33;2.72;;;;;;;1.35;84.54;94342.41;5054726;28;20511;-83
2022/03/06 10:48:35;;;;;;;4.43;2.63;;;;;;;1.36;83.83;94360.03;5051551;28;20188;-81
2022/03/06 10:51:04;;;;;;;5.55;2.17;;;;;;;1.34;83.85;94356.03;5053601;28;20269;-82
2022/03/06 10:53:33;;;;;;;4.68;2.63;;;;;;;1.53;84.58;94353.50;5053661;28;20729;-85
2022/03/06 10:56:08;;;;;;;3.17;1.92;;;;;;;1.67;84.13;94344.56;5050089;28;20215;-78
2022/03/06 10:58:37;;;;;;;3.40;2.08;;;;;;;1.45;85.42;94340.75;5048502;28;20203;-80
2022/03/06 11:01:04;;;;;;;2.85;1.75;;;;;;;1.48;86.27;94340.19;5049094;28;20346;-79
2022/03/06 11:03:34;;;;;;;4.22;2.53;;;;;;;1.52;86.03;94330.53;5048012;28;20207;-80
2022/03/06 11:06:02;;;;;;;1.75;1.20;;;;;;;1.72;86.10;94330.41;5049411;28;20220;-83
2022/03/06 11:08:29;;;;;;;1.55;1.38;;;;;;;1.69;85.76;94333.63;5049406;28;20198;-80
2022/03/06 11:10:57;;;;;;;3.03;1.92;;;;;;;1.72;86.45;94338.41;5048364;28;20196;-79
2022/03/06 11:13:24;;;;;;;4.10;2.67;;;;;;;1.75;87.01;94345.88;5049950;28;20199;-84
2022/03/06 11:15:51;;;;;;;2.25;2.05;;;;;;;1.71;86.92;94344.81;5048523;28;20318;-83
2022/03/06 11:18:19;;;;;;;2.58;2.00;;;;;;;1.52;87.27;94352.69;5048626;28;20562;-80
2022/03/06 11:20:47;;;;;;;2.95;1.98;;;;;;;1.21;87.50;94351.31;5047719;28;20232;-77
2022/03/06 11:23:29;;;;;;;2.85;1.92;;;;;;;1.06;89.18;94357.53;5048889;28;20203;-82
2022/03/06 11:26:26;;;;;;;6.00;2.83;;;;;;;0.87;89.68;94346.66;5048949;28;20199;-80
2022/03/06 11:29:22;;;;;;;3.60;2.00;;;;;;;0.77;90.35;94357.38;5044705;28;20643;-82
2022/03/06 11:31:52;;;;;;;4.75;1.83;;;;;;;0.84;90.40;94347.22;5047035;28;20203;-82
2022/03/06 11:34:23;;;;;;;5.97;3.08;;;;;;;0.79;90.29;94346.47;5050755;28;20199;-82
2022/03/06 11:36:51;;;;;;;3.72;1.92;;;;;;;0.84;89.10;94347.22;5049585;28;20224;-78
2022/03/06 11:39:46;;;;;;;2.17;1.48;;;;;;;0.90;88.54;94345.34;5049122;28;20223;-79
2022/03/06 11:42:51;;;;;;;2.20;1.65;;;;;;;0.87;88.78;94351.22;5046212;28;20235;-83
2022/03/06 11:45:44;;;;;;;2.55;1.48;;;;;;;0.84;89.10;94349.09;5041919;28;20254;-82